Airfield :
LOGIN :

Register | Disclaimer

   EN    FR    IT 

 










Legend :    VFR   Marginal VFR   IFR   Intensive IFR   Very Intensive IFR
Visi :
Ceiling :
>= 8 km
>= 3000ft
5 to 8 km
1000 to 3000 ft
1500m to 5 km
500 to 1000 ft
800 to 1500m
200 to 500 ft
< 800m
< 200 ft
Symbols :   Thunderstorms  Fog  Heavy snow  Heavy precipitations  Wind > 20 kt
SIGMETs :     Misc.  Thunderstorms  Icing  Turbulence  Mountain Waves  Volcanic Ashes






- Airport Elevation : 291 ft
- IATA code : ORY


LFPO - Paris-Orly

CURRENT METAR :
  • 271730Z 31018G28KT 9999 FEW032 SCT044 06/M00 Q1009 NOSIG

EXPIRED METARs :
  • 271700Z 32020KT 9999 BKN032 BKN044 07/01 Q1008 NOSIG
  • 271630Z 31020G31KT 9999 BKN030 BKN044 07/01 Q1007 NOSIG
  • 271600Z 32023KT 9999 BKN029 BKN038 07/01 Q1006 NOSIG
  • 271530Z 31022G33KT 9999 BKN025 BKN035 07/02 Q1004 NOSIG
  • 271500Z 32023G34KT 9999 BKN025 BKN033 07/02 Q1002 NOSIG

TAF TAF LFPO
Valid from the 27 at 18:00 until the 29 at 00:00 UTC


271700Z 2718/2824 30015G25KT 9999 SCT025
BECMG 2718/2721 26007KT CAVOK
BECMG 2802/2804 18005KT
PROB30
TEMPO 2804/2807 2500 BR
TEMPO 2807/2810 -RA NSC
BECMG 2810/2812 18012G23KT -RA BKN030
PROB40
TEMPO 2812/2814 2500 -RADZ BKN008
BECMG 2814/2816 7000 NSW BKN006
TEMPO 2816/2822 2000 -DZRA BKN005
BECMG 2822/2824 9999 SCT012 BKN020
ATIS : +33 1 49 75 65 80



MET'MAP, your aeronautical weather chart ! - Copyright ORBIFLY December 2007 - Disclaimer

ORBIFLY MET'MAP TEAM :

Programming & Development : Alexandra Zaïnal
Concept & original design : Baudouin d'Aumeries
Assistance for programming : Marc-Olivier Méhu
Technical & hardware support : Manuel Goepfert

Contact : metmap@orbifly.com




SOURCES & CREDITS :

   NOAA